Costa Luminosa — ICGU — position and weather

sailwx.info

Track history (hours):
 
Tides and Currents Weather Stations Pressure Air Temp Water Temp Dewpoint Dewpoint Depression Visibility Wind Speed Wind Dir Waves Ship Positions

Costa Luminosa

Last reported at 2016-Dec-09 07:31 UTC. Time now 2016-Dec-09 07:45 UTC.
Position N 44°19' E 008°29'.

Length 294 m; draft 8.1 m.

Type: Passenger vessel. MMSI: 247257900.

Date/timePositionNaut miles runAvg speedWind from/ knotsBaromVisibWave heightAir tempDewpointWater temp
2016-Dec-09 07:31N 44°19' E 008°29'0 0.0
2016-Dec-09 06:32N 44°19' E 008°29'6 6.1
2016-Dec-09 05:33N 44°14' E 008°35'1817.6
2016-Dec-09 04:33N 43°59' E 008°48'41711.2
2016-Dec-07 15:14N 38°51' E 015°02'1318.3
2016-Dec-07 14:33N 38°41' E 015°13'1818.4
2016-Dec-07 13:33N 38°29' E 015°30'1515.4
2016-Dec-07 12:34N 38°17' E 015°42'1717.0
2016-Dec-07 11:33N 38°01' E 015°35'1919.0
2016-Dec-07 10:33N 37°48' E 015°53'2120.7
2016-Dec-07 09:33N 37°39' E 016°16'  
Track history (hours):
 
Tides and Currents Weather Stations Pressure Air Temp Water Temp Dewpoint Dewpoint Depression Visibility Wind Speed Wind Dir Waves Ship Positions

Costa Luminosa

Last reported at 2016-Dec-09 07:31 UTC. Time now 2016-Dec-09 07:45 UTC.
Position N 44°19' E 008°29'.

Length 294 m; draft 8.1 m.

Type: Passenger vessel. MMSI: 247257900.

Date/timePositionNaut miles runAvg speedWind from/ knotsBaromVisibWave heightAir tempDewpointWater temp
2016-Dec-09 07:31N 44°19' E 008°29'0 0.0
2016-Dec-09 06:32N 44°19' E 008°29'6 6.1
2016-Dec-09 05:33N 44°14' E 008°35'1817.6
2016-Dec-09 04:33N 43°59' E 008°48'41711.2
2016-Dec-07 15:14N 38°51' E 015°02'1318.3
2016-Dec-07 14:33N 38°41' E 015°13'1818.4
2016-Dec-07 13:33N 38°29' E 015°30'1515.4
2016-Dec-07 12:34N 38°17' E 015°42'1717.0
2016-Dec-07 11:33N 38°01' E 015°35'1919.0
2016-Dec-07 10:33N 37°48' E 015°53'2120.7
2016-Dec-07 09:33N 37°39' E 016°16'  

Dump ship's entire track history